Shantou Waisha Airport
ZGOW : now visible

Airfield :











YOU CAN JOIN US ON...

 
LOGIN :

Register | Disclaimer

   EN    FR    IT 

 









Legend :    VFR   Marginal VFR   IFR   Intensive IFR   Very Intensive IFR
Visi :
Ceiling :
>= 8 km
>= 3000ft
5 to 8 km
1000 to 3000 ft
1500m to 5 km
500 to 1000 ft
800 to 1500m
200 to 500 ft
< 800m
< 200 ft
Symbols :   Thunderstorms  Fog  Heavy snow  Heavy precipitations  Wind > 20 kt






- Airport Elevation : 0 ft
- IATA code : SWA


ZGOW - Shantou Waisha

CURRENT METAR :
  • 231400Z VRB01MPS 7000 FEW015 BKN050 23/23 Q1009 NOSIG

EXPIRED METARs :
  • 231300Z VRB01MPS 9999 SCT015 BKN033 24/23 Q1009 NOSIG
  • 231200Z 00000MPS 9999 SCT011 BKN040 24/23 Q1008 NOSIG
  • 231100Z 26001MPS 8000 -SHRA SCT011 BKN040 24/23 Q1008 NOSIG
  • 231000Z VRB01MPS 9999 FEW011 SCT017 BKN040 24/23 Q1007 NOSIG
  • 230900Z 21003MPS 180V260 9999 -SHRA SCT015 BKN050 25/23 Q1007 NOSIG

TAF TAF ZGOW
Valid from the 23 at 12:00 until the 24 at 12:00 UTC


230905Z 2312/2412 20003MPS 5000 BR BKN033 TX28/2406Z TN22/2322Z
TEMPO 2408/2412 SHRA FEW008 FEW026CB BKN033
ZGZU FIR / Asia



MET'MAP, your aeronautical weather chart ! - Copyright ORBIFLY December 2007 - Disclaimer

ORBIFLY MET'MAP TEAM :

Programming & Development : Alexandra Zaïnal
Original concept : Baudouin d'Aumeries
Technical & hardware support : Manuel Goepfert
Assistance : Marc-Olivier Méhu




SOURCES & CREDITS :

   NOAA       Earth
Advisory